createdAt,value
2023-05-26T00:00:52.728Z,100933.96
2023-05-26T00:03:23.490Z,100938.92
2023-05-26T00:05:55.291Z,100936.27
2023-05-26T00:08:25.850Z,100937.61
2023-05-26T00:10:56.358Z,100936.70
2023-05-26T00:13:26.907Z,100932.55
2023-05-26T00:15:57.454Z,100935.95
2023-05-26T00:18:28.457Z,100934.87
2023-05-26T00:20:59.345Z,100934.14
2023-05-26T00:23:29.932Z,100937.21
2023-05-26T00:26:00.509Z,100940.27
2023-05-26T00:28:31.019Z,100941.61
2023-05-26T00:31:01.644Z,100945.37
2023-05-26T00:33:32.176Z,100945.52
2023-05-26T00:36:03.180Z,100943.43
2023-05-26T00:38:33.702Z,100943.93
2023-05-26T00:41:04.773Z,100941.48
2023-05-26T00:43:35.267Z,100941.47
2023-05-26T00:46:05.857Z,100946.60
2023-05-26T00:48:36.372Z,100941.40
2023-05-26T00:51:07.460Z,100942.40
2023-05-26T00:53:43.259Z,100942.69
2023-05-26T00:56:16.940Z,100938.66
2023-05-26T00:58:48.225Z,100940.70
2023-05-26T01:01:22.870Z,100942.21
2023-05-26T01:03:54.026Z,100937.95
2023-05-26T01:06:25.668Z,100939.20
2023-05-26T01:08:56.561Z,100936.11
2023-05-26T01:11:33.889Z,100938.88
2023-05-26T01:14:09.937Z,100938.05
2023-05-26T01:16:45.117Z,100930.83
2023-05-26T01:19:53.587Z,100935.66
2023-05-26T01:22:38.849Z,100935.16
2023-05-26T01:25:25.898Z,100933.79
2023-05-26T01:28:11.319Z,100932.41
2023-05-26T01:30:43.522Z,100931.34
2023-05-26T01:33:14.235Z,100929.08
2023-05-26T01:35:46.421Z,100926.83
2023-05-26T01:38:16.375Z,100923.89
2023-05-26T01:40:58.648Z,100919.56
2023-05-26T01:43:36.220Z,100925.44
2023-05-26T01:46:12.820Z,100928.20
2023-05-26T01:48:47.039Z,100928.90
2023-05-26T01:51:21.968Z,100930.98
2023-05-26T01:53:57.600Z,100930.14
2023-05-26T01:56:29.041Z,100930.87
2023-05-26T01:59:01.764Z,100932.25
2023-05-26T02:01:35.108Z,100932.25
2023-05-26T02:04:06.151Z,100933.98
2023-05-26T02:06:36.767Z,100934.37
2023-05-26T02:09:08.657Z,100931.20
2023-05-26T02:11:39.166Z,100933.48
2023-05-26T02:14:09.641Z,100936.45
2023-05-26T02:16:40.912Z,100937.70
2023-05-26T02:19:11.545Z,100944.61
2023-05-26T02:21:42.304Z,100940.14
2023-05-26T02:24:12.813Z,100942.38
2023-05-26T02:26:43.336Z,100943.23
2023-05-26T02:29:13.837Z,100943.77
2023-05-26T02:31:44.356Z,100944.10
2023-05-26T02:34:14.893Z,100949.77
2023-05-26T02:36:45.454Z,100949.23
2023-05-26T02:39:17.226Z,100951.27
2023-05-26T02:41:48.106Z,100949.70
2023-05-26T02:44:18.893Z,100954.35
2023-05-26T02:46:49.428Z,100956.21
2023-05-26T02:49:19.998Z,100958.79
2023-05-26T02:51:50.497Z,100957.23
2023-05-26T02:54:20.988Z,100953.93
2023-05-26T02:56:51.572Z,100955.63
2023-05-26T02:59:22.165Z,100955.95
2023-05-26T03:01:52.910Z,100956.46
2023-05-26T03:04:23.575Z,100954.36
2023-05-26T03:06:54.137Z,100956.58
2023-05-26T03:09:27.177Z,100955.02
2023-05-26T03:11:57.783Z,100956.80
2023-05-26T03:14:29.050Z,100959.80
2023-05-26T03:16:59.557Z,100961.19
2023-05-26T03:19:30.217Z,100962.25
2023-05-26T03:22:38.270Z,100961.77
2023-05-26T03:24:54.017Z,100960.55
2023-05-26T03:27:27.549Z,100959.17
2023-05-26T03:29:58.316Z,100962.27
2023-05-26T03:32:29.713Z,100963.80
2023-05-26T03:35:00.300Z,100962.08
2023-05-26T03:37:30.791Z,100962.77
2023-05-26T03:40:01.648Z,100961.38
2023-05-26T03:42:32.476Z,100967.39
2023-05-26T03:45:03.040Z,100965.48
2023-05-26T03:47:33.618Z,100966.15
2023-05-26T03:50:07.191Z,100971.80
2023-05-26T03:52:39.636Z,100977.45
2023-05-26T03:55:12.116Z,100977.22
2023-05-26T03:57:42.781Z,100983.06
2023-05-26T04:00:15.797Z,100982.89
2023-05-26T04:02:49.612Z,100984.48
2023-05-26T04:05:20.489Z,100986.28
2023-05-26T04:07:51.900Z,100990.80
2023-05-26T04:10:22.423Z,100982.20
2023-05-26T04:12:52.929Z,100983.25
2023-05-26T04:15:23.576Z,100991.68
2023-05-26T04:17:54.232Z,100994.08
2023-05-26T04:20:24.859Z,100999.53
2023-05-26T04:22:55.072Z,100997.39
2023-05-26T04:25:26.518Z,100997.14
2023-05-26T04:28:04.123Z,100996.88
2023-05-26T04:30:54.904Z,100999.59
2023-05-26T04:33:26.312Z,101000.09
2023-05-26T04:36:19.674Z,101004.55
2023-05-26T04:38:50.141Z,101005.38
2023-05-26T04:41:20.818Z,101008.10
2023-05-26T04:43:51.349Z,101008.63
2023-05-26T04:46:21.960Z,101008.37
2023-05-26T04:48:53.837Z,101009.99
2023-05-26T04:51:25.142Z,101011.74
2023-05-26T04:53:56.560Z,101014.72
2023-05-26T04:56:27.994Z,101013.04
2023-05-26T04:59:01.861Z,101012.89
2023-05-26T05:01:34.085Z,101009.80
2023-05-26T05:04:37.671Z,101010.47
2023-05-26T05:07:08.614Z,101010.66
2023-05-26T05:09:39.203Z,101009.46
2023-05-26T05:12:09.943Z,101008.76
2023-05-26T05:14:42.420Z,101007.20
2023-05-26T05:17:13.605Z,101005.63
2023-05-26T05:19:44.160Z,101010.42
2023-05-26T05:22:14.966Z,101014.70
2023-05-26T05:24:45.662Z,101018.42
2023-05-26T05:27:16.348Z,101020.29
2023-05-26T05:29:47.204Z,101021.48
2023-05-26T05:32:17.924Z,101027.67
2023-05-26T05:34:51.936Z,101031.60
2023-05-26T05:37:22.494Z,101035.73
2023-05-26T05:39:53.788Z,101039.16
2023-05-26T05:42:26.000Z,101038.29
2023-05-26T05:44:56.699Z,101044.31
2023-05-26T05:47:53.037Z,101043.98
2023-05-26T05:50:23.999Z,101044.16
2023-05-26T05:52:55.570Z,101048.48
2023-05-26T05:55:26.516Z,101048.13
2023-05-26T05:57:57.124Z,101049.02
2023-05-26T06:00:27.846Z,101047.14
2023-05-26T06:02:59.366Z,101053.34
2023-05-26T06:05:30.256Z,101053.36
2023-05-26T06:08:00.783Z,101054.73
2023-05-26T06:10:32.927Z,101058.55
2023-05-26T06:13:03.565Z,101061.32
2023-05-26T06:15:34.167Z,101064.06
2023-05-26T06:18:05.061Z,101064.23
2023-05-26T06:20:35.894Z,101065.27
2023-05-26T06:23:07.648Z,101068.96
2023-05-26T06:25:38.235Z,101073.33
2023-05-26T06:28:09.363Z,101070.61
2023-05-26T06:30:40.669Z,101073.25
2023-05-26T06:33:37.494Z,101075.87
2023-05-26T06:36:09.285Z,101078.84
2023-05-26T06:38:40.462Z,101073.52
2023-05-26T06:41:11.912Z,101075.45
2023-05-26T06:43:42.654Z,101073.77
2023-05-26T06:46:13.184Z,101077.56
2023-05-26T06:48:44.363Z,101073.23
2023-05-26T06:51:21.509Z,101070.45
2023-05-26T06:53:52.311Z,101069.60
2023-05-26T06:56:23.017Z,101066.16
2023-05-26T06:58:54.406Z,101070.50
2023-05-26T07:01:25.378Z,101071.91
2023-05-26T07:03:56.608Z,101070.23
2023-05-26T07:06:35.599Z,101071.14
2023-05-26T07:09:09.900Z,101071.88
2023-05-26T07:11:50.902Z,101075.05
2023-05-26T07:14:41.050Z,101077.86
2023-05-26T07:17:13.541Z,101075.95
2023-05-26T07:19:44.498Z,101080.61
2023-05-26T07:22:15.188Z,101083.70
2023-05-26T07:24:58.566Z,101083.34
2023-05-26T07:27:35.171Z,101086.83
2023-05-26T07:30:06.736Z,101088.72
2023-05-26T07:32:39.042Z,101084.23
2023-05-26T07:35:10.581Z,101085.28
2023-05-26T07:37:41.473Z,101090.65
2023-05-26T07:40:13.594Z,101089.25
2023-05-26T07:42:45.749Z,101091.67
2023-05-26T07:45:17.546Z,101094.81
2023-05-26T07:47:47.108Z,101096.93
2023-05-26T07:50:18.109Z,101096.44
2023-05-26T07:52:48.694Z,101096.00
2023-05-26T07:55:19.326Z,101097.58
2023-05-26T07:57:50.027Z,101093.14
2023-05-26T08:00:21.204Z,101093.58
2023-05-26T08:02:52.053Z,101096.55
2023-05-26T08:05:22.857Z,101102.66
2023-05-26T08:07:53.439Z,101101.85
2023-05-26T08:10:24.195Z,101103.78
2023-05-26T08:12:55.310Z,101106.27
2023-05-26T08:15:26.514Z,101106.49
2023-05-26T08:17:57.241Z,101106.70
2023-05-26T08:20:27.936Z,101106.73
2023-05-26T08:23:00.548Z,101109.55
2023-05-26T08:25:31.242Z,101105.61
2023-05-26T08:28:01.761Z,101106.33
2023-05-26T08:30:32.281Z,101107.73
2023-05-26T08:33:02.930Z,101103.81
2023-05-26T08:35:33.484Z,101104.19
2023-05-26T08:38:03.976Z,101106.97
2023-05-26T08:40:34.889Z,101109.73
2023-05-26T08:43:11.064Z,101108.01
2023-05-26T08:45:43.051Z,101108.89
2023-05-26T08:48:15.238Z,101107.35
2023-05-26T08:50:50.295Z,101103.05
2023-05-26T08:53:21.410Z,101099.11
2023-05-26T08:55:52.912Z,101099.16
2023-05-26T08:58:25.219Z,101096.25
2023-05-26T09:00:57.238Z,101097.67
2023-05-26T09:03:27.959Z,101097.35
2023-05-26T09:05:58.684Z,101095.64
2023-05-26T09:08:30.213Z,101092.58
2023-05-26T09:11:19.868Z,101091.25
2023-05-26T09:13:54.764Z,101094.19
2023-05-26T09:16:26.596Z,101090.95
2023-05-26T09:19:03.217Z,101085.13
2023-05-26T09:21:34.594Z,101084.84
2023-05-26T09:24:05.289Z,101073.84
2023-05-26T09:26:39.423Z,101078.05
2023-05-26T09:29:10.032Z,101077.23
2023-05-26T09:31:44.405Z,101074.02
2023-05-26T09:34:15.877Z,101073.20
2023-05-26T09:36:46.694Z,101070.96
2023-05-26T09:39:17.747Z,101075.81
2023-05-26T09:41:49.136Z,101078.27
2023-05-26T09:44:21.744Z,101074.52
2023-05-26T09:46:55.888Z,101066.96
2023-05-26T09:49:26.435Z,101067.89
2023-05-26T09:52:12.659Z,101078.13
2023-05-26T09:54:44.230Z,101074.21
2023-05-26T09:57:16.954Z,101074.61
2023-05-26T09:59:52.262Z,101076.02
2023-05-26T10:02:24.585Z,101081.94
2023-05-26T10:04:56.006Z,101078.33
2023-05-26T10:07:28.469Z,101076.63
2023-05-26T10:10:01.563Z,101078.39
2023-05-26T10:12:34.657Z,101084.51
2023-05-26T10:15:06.643Z,101083.17
2023-05-26T10:17:37.736Z,101084.60
2023-05-26T10:20:10.473Z,101081.70
2023-05-26T10:22:48.944Z,101080.71
2023-05-26T10:25:27.006Z,101078.15
2023-05-26T10:28:06.528Z,101077.70
2023-05-26T10:30:39.056Z,101076.39
2023-05-26T10:33:14.655Z,101077.14
2023-05-26T10:35:56.972Z,101074.42
2023-05-26T10:38:32.651Z,101076.54
2023-05-26T10:41:03.249Z,101080.21
2023-05-26T10:43:33.810Z,101076.61
2023-05-26T10:46:06.003Z,101074.55
2023-05-26T10:48:39.546Z,101072.30
2023-05-26T10:51:25.958Z,101074.72
2023-05-26T10:53:58.379Z,101070.43
2023-05-26T10:56:42.833Z,101078.25
2023-05-26T10:59:23.530Z,101080.55
2023-05-26T11:01:55.632Z,101080.05
2023-05-26T11:04:41.174Z,101079.36
2023-05-26T11:07:19.597Z,101072.44
2023-05-26T11:10:03.301Z,101077.66
2023-05-26T11:12:38.120Z,101073.48
2023-05-26T11:15:28.251Z,101074.55
2023-05-26T11:18:02.553Z,101070.93
2023-05-26T11:20:33.417Z,101069.55
2023-05-26T11:23:04.942Z,101070.08
2023-05-26T11:25:48.136Z,101071.82
2023-05-26T11:28:22.052Z,101064.20
2023-05-26T11:30:52.779Z,101059.22
2023-05-26T11:33:23.291Z,101052.48
2023-05-26T11:35:53.896Z,101048.85
2023-05-26T11:38:24.910Z,101046.98
2023-05-26T11:40:55.398Z,101044.40
2023-05-26T11:43:27.746Z,101045.84
2023-05-26T11:46:03.481Z,101048.14
2023-05-26T11:48:40.464Z,101039.31
2023-05-26T11:51:12.964Z,101034.48
2023-05-26T11:53:46.101Z,101037.81
2023-05-26T11:56:17.794Z,101040.77
2023-05-26T11:58:47.682Z,101041.81
2023-05-26T12:01:18.243Z,101033.51
2023-05-26T12:03:52.857Z,101036.80
2023-05-26T12:06:25.199Z,101035.44
2023-05-26T12:08:57.455Z,101026.77
2023-05-26T12:11:36.018Z,101031.46
2023-05-26T12:14:12.217Z,101032.52
2023-05-26T12:16:45.107Z,101033.05
2023-05-26T12:19:19.374Z,101026.14
2023-05-26T12:21:52.195Z,101016.95
2023-05-26T12:24:34.962Z,101016.25
2023-05-26T12:27:13.388Z,101016.96
2023-05-26T12:29:45.568Z,101017.11
2023-05-26T12:32:16.213Z,101010.52
2023-05-26T12:34:46.846Z,101005.81
2023-05-26T12:37:18.556Z,101005.45
2023-05-26T12:39:49.029Z,101004.39
2023-05-26T12:42:19.565Z,101005.43
2023-05-26T12:44:50.049Z,101001.09
2023-05-26T12:47:20.571Z,101003.31
2023-05-26T12:49:51.114Z,101001.92
2023-05-26T12:52:21.655Z,101001.75
2023-05-26T12:54:54.154Z,100999.14
2023-05-26T12:57:26.458Z,100989.57
2023-05-26T12:59:56.920Z,100989.91
2023-05-26T13:02:27.548Z,100990.42
2023-05-26T13:04:58.240Z,100995.29
2023-05-26T13:07:28.831Z,100996.69
2023-05-26T13:09:59.461Z,100990.60
2023-05-26T13:12:30.124Z,100994.94
2023-05-26T13:15:00.665Z,100986.95
2023-05-26T13:17:31.330Z,100985.70
2023-05-26T13:20:02.161Z,100987.94
2023-05-26T13:22:32.752Z,100982.71
2023-05-26T13:25:03.542Z,100980.60
2023-05-26T13:27:34.038Z,100980.42
2023-05-26T13:30:04.988Z,100980.55
2023-05-26T13:32:37.675Z,100980.55
2023-05-26T13:35:10.402Z,100983.48
2023-05-26T13:37:41.485Z,100982.05
2023-05-26T13:40:14.029Z,100980.45
2023-05-26T13:42:44.525Z,100978.50
2023-05-26T13:45:15.944Z,100975.67
2023-05-26T13:47:47.172Z,100978.73
2023-05-26T13:50:21.610Z,100973.98
2023-05-26T13:52:53.269Z,100968.90
2023-05-26T13:55:25.372Z,100970.58
2023-05-26T13:57:55.948Z,100976.64
2023-05-26T14:00:27.182Z,100975.55
2023-05-26T14:02:57.822Z,100973.77
2023-05-26T14:05:28.432Z,100973.55
2023-05-26T14:07:59.880Z,100969.49
2023-05-26T14:10:31.929Z,100972.53
2023-05-26T14:13:02.466Z,100971.92
2023-05-26T14:15:33.277Z,100969.90
2023-05-26T14:18:08.594Z,100973.02
2023-05-26T14:21:37.526Z,100970.23
2023-05-26T14:23:30.556Z,100970.19
2023-05-26T14:26:03.785Z,100975.35
2023-05-26T14:28:34.335Z,100972.50
2023-05-26T14:31:05.027Z,100968.86
2023-05-26T14:33:35.890Z,100965.48
2023-05-26T14:36:06.640Z,100968.55
2023-05-26T14:38:37.129Z,100966.20
2023-05-26T14:41:07.826Z,100971.30
2023-05-26T14:43:41.954Z,100967.66
2023-05-26T14:46:12.972Z,100962.42
2023-05-26T14:48:43.662Z,100958.88
2023-05-26T14:51:14.265Z,100955.71
2023-05-26T14:53:44.939Z,100956.73
2023-05-26T14:56:15.525Z,100952.26
2023-05-26T14:58:46.649Z,100947.41
2023-05-26T15:01:17.421Z,100950.67
2023-05-26T15:04:07.931Z,100949.43
2023-05-26T15:06:39.663Z,100946.08
2023-05-26T15:09:10.652Z,100945.52
2023-05-26T15:11:41.247Z,100944.67
2023-05-26T15:14:11.740Z,100945.77
2023-05-26T15:21:03.831Z,100947.64
2023-05-26T15:28:01.260Z,100946.66
2023-05-26T15:34:52.158Z,100943.59
2023-05-26T15:37:22.900Z,100945.92
2023-05-26T15:39:53.658Z,100939.07
2023-05-26T15:42:24.284Z,100939.79
2023-05-26T15:44:54.811Z,100940.61
2023-05-26T15:47:25.433Z,100939.99
2023-05-26T15:49:55.968Z,100935.76
2023-05-26T15:52:26.580Z,100937.05
2023-05-26T15:54:57.210Z,100933.60
2023-05-26T15:57:27.824Z,100931.13
2023-05-26T15:59:58.744Z,100931.21
2023-05-26T16:02:29.656Z,100930.63
2023-05-26T16:05:00.202Z,100928.36
2023-05-26T16:07:31.817Z,100934.35
2023-05-26T16:10:02.290Z,100929.30
2023-05-26T16:12:32.856Z,100931.92
2023-05-26T16:15:03.399Z,100931.35
2023-05-26T16:17:34.018Z,100930.22
2023-05-26T16:20:04.901Z,100929.39
2023-05-26T16:22:35.506Z,100931.50
2023-05-26T16:25:06.480Z,100930.46
2023-05-26T16:27:36.985Z,100932.18
2023-05-26T16:30:09.578Z,100928.39
2023-05-26T16:32:42.020Z,100928.03
2023-05-26T16:35:13.217Z,100926.96
2023-05-26T16:37:43.799Z,100924.28
2023-05-26T16:40:14.954Z,100926.27
2023-05-26T16:42:45.471Z,100929.66
2023-05-26T16:45:16.108Z,100926.10
2023-05-26T16:47:46.727Z,100922.88
2023-05-26T16:50:17.271Z,100925.91
2023-05-26T16:52:47.757Z,100927.55
2023-05-26T16:55:18.652Z,100929.69
2023-05-26T16:57:50.631Z,100933.23
2023-05-26T17:00:21.905Z,100928.59
2023-05-26T17:02:52.541Z,100930.21
2023-05-26T17:05:23.400Z,100929.91
2023-05-26T17:07:54.381Z,100934.13
2023-05-26T17:10:24.942Z,100936.58
2023-05-26T17:12:56.143Z,100933.14
2023-05-26T17:15:27.506Z,100933.34
2023-05-26T17:17:58.376Z,100930.56
2023-05-26T17:20:29.130Z,100934.95
2023-05-26T17:22:59.832Z,100937.75
2023-05-26T17:25:30.371Z,100938.43
2023-05-26T17:28:02.099Z,100937.04
2023-05-26T17:30:33.057Z,100943.30
2023-05-26T17:33:04.144Z,100938.27
2023-05-26T17:35:34.945Z,100941.03
2023-05-26T17:38:05.517Z,100940.29
2023-05-26T17:40:36.088Z,100942.55
2023-05-26T17:43:06.797Z,100945.17
2023-05-26T17:45:37.278Z,100945.69
2023-05-26T17:48:07.862Z,100949.50
2023-05-26T17:50:38.377Z,100951.92
2023-05-26T17:53:08.923Z,100952.10
2023-05-26T17:55:39.418Z,100950.38
2023-05-26T17:58:09.951Z,100955.59
2023-05-26T18:00:40.779Z,100960.84
2023-05-26T18:03:11.884Z,100958.79
2023-05-26T18:05:42.527Z,100963.51
2023-05-26T18:08:13.098Z,100965.64
2023-05-26T18:10:43.626Z,100965.65
2023-05-26T18:13:14.522Z,100964.31
2023-05-26T18:15:45.159Z,100966.42
2023-05-26T18:18:15.720Z,100967.51
2023-05-26T18:20:46.684Z,100972.23
2023-05-26T18:23:17.473Z,100972.44
2023-05-26T18:25:48.087Z,100974.19
2023-05-26T18:28:18.580Z,100978.21
2023-05-26T18:30:49.124Z,100980.67
2023-05-26T18:33:19.622Z,100982.43
2023-05-26T18:35:50.344Z,100985.91
2023-05-26T18:38:21.170Z,100990.60
2023-05-26T18:40:51.717Z,100990.60
2023-05-26T18:43:22.208Z,100994.61
2023-05-26T18:45:52.718Z,101001.58
2023-05-26T18:48:23.768Z,101004.17
2023-05-26T18:50:54.325Z,101006.29
2023-05-26T18:53:24.840Z,101015.84
2023-05-26T18:55:55.454Z,101018.10
2023-05-26T18:58:26.038Z,101018.82
2023-05-26T19:00:56.626Z,101022.46
2023-05-26T19:03:27.323Z,101024.56
2023-05-26T19:05:57.958Z,101025.08
2023-05-26T19:08:28.475Z,101023.35
2023-05-26T19:10:59.191Z,101028.21
2023-05-26T19:13:30.048Z,101032.38
2023-05-26T19:16:01.403Z,101038.63
2023-05-26T19:18:31.984Z,101043.83
2023-05-26T19:21:02.520Z,101045.73
2023-05-26T19:23:33.102Z,101048.86
2023-05-26T19:26:03.733Z,101050.08
2023-05-26T19:28:39.347Z,101051.45
2023-05-26T19:31:12.531Z,101056.81
2023-05-26T19:33:43.233Z,101060.27
2023-05-26T19:36:13.760Z,101057.83
2023-05-26T19:38:44.324Z,101059.73
2023-05-26T19:41:14.801Z,101061.30
2023-05-26T19:43:45.297Z,101062.85
2023-05-26T19:46:15.922Z,101068.21
2023-05-26T19:48:48.107Z,101069.79
2023-05-26T19:51:18.609Z,101067.52
2023-05-26T19:53:49.132Z,101072.87
2023-05-26T19:56:19.724Z,101072.88
2023-05-26T19:58:50.197Z,101075.48
2023-05-26T20:01:22.873Z,101084.48
2023-05-26T20:03:53.665Z,101089.66
2023-05-26T20:06:24.739Z,101087.23
2023-05-26T20:08:55.254Z,101088.44
2023-05-26T20:11:27.844Z,101092.05
2023-05-26T20:13:58.448Z,101091.17
2023-05-26T20:16:29.079Z,101094.12
2023-05-26T20:19:00.027Z,101098.42
2023-05-26T20:21:30.635Z,101097.91
2023-05-26T20:24:01.827Z,101100.15
2023-05-26T20:26:32.401Z,101099.43
2023-05-26T20:29:03.027Z,101101.84
2023-05-26T20:31:33.739Z,101104.96
2023-05-26T20:34:04.298Z,101109.27
2023-05-26T20:36:34.893Z,101106.48
2023-05-26T20:39:06.474Z,101116.31
2023-05-26T20:41:37.086Z,101123.73
2023-05-26T20:44:07.685Z,101124.91
2023-05-26T20:46:38.448Z,101128.00
2023-05-26T20:49:09.007Z,101130.21
2023-05-26T20:51:39.585Z,101129.70
2023-05-26T20:54:10.081Z,101134.88
2023-05-26T20:56:40.983Z,101131.90
2023-05-26T20:59:11.503Z,101135.16
2023-05-26T21:01:42.026Z,101138.27
2023-05-26T21:04:12.702Z,101142.91
2023-05-26T21:06:43.197Z,101144.09
2023-05-26T21:09:14.170Z,101145.81
2023-05-26T21:11:44.766Z,101141.11
2023-05-26T21:14:15.313Z,101140.04
2023-05-26T21:16:46.234Z,101138.29
2023-05-26T21:19:16.812Z,101136.02
2023-05-26T21:21:47.328Z,101135.63
2023-05-26T21:24:17.877Z,101137.85
2023-05-26T21:26:48.421Z,101142.50
2023-05-26T21:29:18.909Z,101143.67
2023-05-26T21:31:49.557Z,101141.92
2023-05-26T21:34:20.161Z,101140.86
2023-05-26T21:36:50.757Z,101142.23
2023-05-26T21:39:21.322Z,101143.75
2023-05-26T21:41:51.880Z,101150.30
2023-05-26T21:44:22.328Z,101153.39
2023-05-26T21:46:53.006Z,101151.95
2023-05-26T21:49:24.807Z,101155.36
2023-05-26T21:51:55.338Z,101151.36
2023-05-26T21:54:25.975Z,101158.04
2023-05-26T21:56:56.679Z,101164.06
2023-05-26T21:59:27.254Z,101165.41
2023-05-26T22:01:57.869Z,101172.12
2023-05-26T22:04:28.499Z,101171.40
2023-05-26T22:06:59.054Z,101171.39
2023-05-26T22:09:29.557Z,101170.10
2023-05-26T22:12:00.266Z,101172.33
2023-05-26T22:14:30.846Z,101172.45
2023-05-26T22:17:01.387Z,101173.61
2023-05-26T22:19:31.919Z,101173.39
2023-05-26T22:22:02.407Z,101172.11
2023-05-26T22:24:32.949Z,101172.76
2023-05-26T22:27:03.950Z,101173.41
2023-05-26T22:29:34.482Z,101179.75
2023-05-26T22:32:05.698Z,101182.98
2023-05-26T22:34:36.303Z,101182.60
2023-05-26T22:37:07.234Z,101190.66
2023-05-26T22:39:37.739Z,101193.02
2023-05-26T22:42:09.171Z,101197.95
2023-05-26T22:44:39.893Z,101199.45
2023-05-26T22:47:10.769Z,101199.59
2023-05-26T22:49:41.480Z,101198.20
2023-05-26T22:52:11.974Z,101200.23
2023-05-26T22:54:42.578Z,101202.48
2023-05-26T22:57:13.136Z,101200.85
2023-05-26T22:59:43.662Z,101203.41
2023-05-26T23:02:14.379Z,101205.10
2023-05-26T23:04:44.888Z,101205.05
2023-05-26T23:07:15.371Z,101205.86
2023-05-26T23:09:46.006Z,101204.23
2023-05-26T23:12:16.606Z,101208.31
2023-05-26T23:14:47.147Z,101212.09
2023-05-26T23:17:17.701Z,101211.69
2023-05-26T23:19:48.212Z,101215.23
2023-05-26T23:22:18.743Z,101215.89
2023-05-26T23:24:49.315Z,101211.89
2023-05-26T23:27:19.826Z,101212.01
2023-05-26T23:29:50.493Z,101215.05
2023-05-26T23:32:21.069Z,101213.45
2023-05-26T23:34:51.794Z,101214.95
2023-05-26T23:37:22.529Z,101217.32
2023-05-26T23:39:53.081Z,101214.52
2023-05-26T23:42:23.605Z,101213.79
2023-05-26T23:44:54.522Z,101216.67
2023-05-26T23:47:25.109Z,101217.63
2023-05-26T23:49:55.866Z,101215.34
2023-05-26T23:52:26.393Z,101213.24
2023-05-26T23:54:56.932Z,101215.77
2023-05-26T23:57:27.541Z,101213.66
2023-05-26T23:59:58.030Z,101215.70
